Time;durP1;ratioP1;P1;durP2;ratioP2;P2;SDS_P1;SDS_P2;PMS_P1;PMS_P2;Temp;Humidity;BMP_temperature;BMP_pressure;BME280_temperature;BME280_humidity;BME280_pressure;Samples;Min_cycle;Max_cycle;Signal;HPM_P1;HPM_P2
2023/04/23 00:02:48;;;;;;;;;;;;;;;9.12;100.00;100167.72;5590253;31;34775;-71
2023/04/23 00:05:53;;;;;;;;;;;;;;;9.14;100.00;100161.28;5576790;31;34211;-70
2023/04/23 00:08:56;;;;;;;;;;;;;;;9.07;100.00;100165.56;5590574;31;34769;-70
2023/04/23 00:12:00;;;;;;;;;;;;;;;9.02;100.00;100170.53;5590424;31;34703;-70
2023/04/23 00:15:03;;;;;;;;;;;;;;;8.96;100.00;100162.41;5590053;31;35118;-70
2023/04/23 00:18:08;;;;;;;;;;;;;;;8.91;100.00;100170.00;5590154;31;34257;-72
2023/04/23 00:21:12;;;;;;;;;;;;;;;8.85;100.00;100158.25;5576392;31;34297;-71
2023/04/23 00:24:14;;;;;;;;;;;;;;;8.83;100.00;100156.75;5590129;31;34044;-71
2023/04/23 00:27:17;;;;;;;;;;;;;;;8.78;100.00;100157.25;5590273;31;34235;-69
2023/04/23 00:30:19;;;;;;;;;;;;;;;8.73;100.00;100156.91;5590380;31;34164;-71
2023/04/23 00:33:22;;;;;;;;;;;;;;;8.68;100.00;100161.84;5589369;31;34172;-70
2023/04/23 00:36:25;;;;;;;;;;;;;;;8.65;100.00;100156.88;5590078;31;34156;-71
2023/04/23 00:39:27;;;;;;;;;;;;;;;8.60;100.00;100159.19;5590175;31;33165;-70
2023/04/23 00:42:30;;;;;;;;;;;;;;;8.57;100.00;100155.03;5590032;31;34219;-72
2023/04/23 00:45:33;;;;;;;;;;;;;;;8.53;100.00;100153.69;5589897;31;34323;-71
2023/04/23 00:48:37;;;;;;;;;;;;;;;8.52;100.00;100159.16;5576465;31;34325;-70
2023/04/23 00:51:40;;;;;;;;;;;;;;;8.47;100.00;100158.81;5590278;31;34204;-70
2023/04/23 00:54:43;;;;;;;;;;;;;;;8.41;100.00;100155.00;5589953;31;34256;-70
2023/04/23 00:57:46;;;;;;;;;;;;;;;8.38;100.00;100154.44;5590108;31;34796;-70
2023/04/23 01:00:50;;;;;;;;;;;;;;;8.34;100.00;100148.66;5589830;31;34127;-70
2023/04/23 01:03:55;;;;;;;;;;;;;;;8.32;100.00;100147.19;5589568;31;34166;-71
2023/04/23 01:06:58;;;;;;;;;;;;;;;8.28;100.00;100155.37;5576115;31;34216;-70
2023/04/23 01:10:01;;;;;;;;;;;;;;;8.28;100.00;100143.97;5589968;31;34286;-70
2023/04/23 01:13:04;;;;;;;;;;;;;;;8.30;100.00;100144.69;5589734;31;34890;-71
2023/04/23 01:16:07;;;;;;;;;;;;;;;8.23;100.00;100152.37;5589581;31;34706;-70
2023/04/23 01:19:10;;;;;;;;;;;;;;;8.20;100.00;100152.72;5589677;31;34020;-70
2023/04/23 01:22:13;;;;;;;;;;;;;;;8.17;100.00;100150.38;5589659;31;34278;-70
2023/04/23 01:25:16;;;;;;;;;;;;;;;8.11;100.00;100151.00;5589527;31;34198;-70
2023/04/23 01:28:19;;;;;;;;;;;;;;;8.07;100.00;100146.19;5589953;31;34350;-70
2023/04/23 01:31:22;;;;;;;;;;;;;;;8.02;100.00;100143.19;5575765;31;34129;-69
2023/04/23 01:34:25;;;;;;;;;;;;;;;8.00;100.00;100142.53;5575850;31;34142;-70
2023/04/23 01:37:28;;;;;;;;;;;;;;;7.95;100.00;100143.00;5589466;31;34926;-69
2023/04/23 01:40:31;;;;;;;;;;;;;;;7.93;100.00;100142.34;5589445;31;34823;-70
2023/04/23 01:43:34;;;;;;;;;;;;;;;7.89;100.00;100142.81;5588096;31;34225;-70
2023/04/23 01:46:36;;;;;;;;;;;;;;;7.82;100.00;100142.59;5589087;31;35021;-70
2023/04/23 01:49:39;;;;;;;;;;;;;;;7.81;100.00;100149.69;5589518;31;34983;-70
2023/04/23 01:52:43;;;;;;;;;;;;;;;7.76;100.00;100140.56;5589352;31;34275;-70
2023/04/23 01:55:46;;;;;;;;;;;;;;;7.72;100.00;100139.22;5589691;31;34185;-70
2023/04/23 01:58:50;;;;;;;;;;;;;;;7.67;100.00;100144.97;5589243;31;34758;-70
2023/04/23 02:01:53;;;;;;;;;;;;;;;7.65;100.00;100143.50;5589145;31;34042;-70
2023/04/23 02:04:57;;;;;;;;;;;;;;;7.62;100.00;100146.41;5589085;31;34756;-70
2023/04/23 02:08:00;;;;;;;;;;;;;;;7.59;100.00;100138.81;5589423;31;34875;-69
2023/04/23 02:11:04;;;;;;;;;;;;;;;7.61;100.00;100134.19;5589438;31;33827;-70
2023/04/23 02:14:07;;;;;;;;;;;;;;;7.57;100.00;100140.78;5589006;31;34066;-70
2023/04/23 02:17:11;;;;;;;;;;;;;;;7.57;100.00;100131.03;5588837;31;34552;-70
2023/04/23 02:20:13;;;;;;;;;;;;;;;7.57;100.00;100132.84;5588838;31;34244;-69
2023/04/23 02:23:16;;;;;;;;;;;;;;;7.53;100.00;100131.50;5588764;31;35614;-70
2023/04/23 02:26:18;;;;;;;;;;;;;;;7.47;100.00;100130.31;5588760;31;34244;-69
2023/04/23 02:29:22;;;;;;;;;;;;;;;7.45;100.00;100134.09;5588792;31;34195;-70
2023/04/23 02:32:25;;;;;;;;;;;;;;;7.42;100.00;100133.41;5588599;31;34118;-70
2023/04/23 02:35:27;;;;;;;;;;;;;;;7.43;100.00;100124.50;5588600;31;34103;-70
2023/04/23 02:38:30;;;;;;;;;;;;;;;7.50;100.00;100129.19;5588984;31;34236;-69
2023/04/23 02:41:32;;;;;;;;;;;;;;;7.43;100.00;100131.59;5588408;31;34844;-70
2023/04/23 02:44:35;;;;;;;;;;;;;;;7.42;100.00;100125.50;5588662;31;34357;-70
2023/04/23 02:47:37;;;;;;;;;;;;;;;7.32;100.00;100127.38;5588351;31;34960;-70
2023/04/23 02:50:41;;;;;;;;;;;;;;;7.29;100.00;100127.72;5588226;31;34225;-70
2023/04/23 02:53:43;;;;;;;;;;;;;;;7.29;100.00;100126.88;5588441;31;34955;-70
2023/04/23 02:56:46;;;;;;;;;;;;;;;7.24;100.00;100123.88;5590214;31;34300;-70
2023/04/23 02:59:49;;;;;;;;;;;;;;;7.21;100.00;100126.81;5591086;31;34254;-70
2023/04/23 03:02:53;;;;;;;;;;;;;;;7.16;100.00;100115.88;5591110;31;34868;-70
2023/04/23 03:05:55;;;;;;;;;;;;;;;7.13;100.00;100129.38;5590833;31;34261;-70
2023/04/23 03:08:58;;;;;;;;;;;;;;;7.08;100.00;100121.06;5590801;31;35032;-70
2023/04/23 03:12:01;;;;;;;;;;;;;;;7.05;100.00;100119.59;5591180;31;34638;-70
2023/04/23 03:15:04;;;;;;;;;;;;;;;7.04;100.00;100122.37;5590891;31;34246;-69
2023/04/23 03:18:08;;;;;;;;;;;;;;;6.98;100.00;100129.91;5590640;31;34393;-69
2023/04/23 03:21:11;;;;;;;;;;;;;;;6.98;100.00;100115.88;5590785;31;34817;-70
2023/04/23 03:24:15;;;;;;;;;;;;;;;6.95;100.00;100117.03;5591039;31;34792;-70
2023/04/23 03:27:18;;;;;;;;;;;;;;;6.94;100.00;100122.44;5590812;31;34298;-70
2023/04/23 03:30:20;;;;;;;;;;;;;;;6.93;100.00;100115.50;5591076;31;34330;-70
2023/04/23 03:33:23;;;;;;;;;;;;;;;6.93;100.00;100118.97;5590825;31;34147;-70
2023/04/23 03:36:25;;;;;;;;;;;;;;;6.90;100.00;100121.09;5590661;31;34208;-70
2023/04/23 03:39:28;;;;;;;;;;;;;;;6.91;100.00;100114.84;5590626;31;34147;-70
2023/04/23 03:42:32;;;;;;;;;;;;;;;6.88;100.00;100115.13;5590675;31;34709;-70
2023/04/23 03:45:35;;;;;;;;;;;;;;;6.83;100.00;100120.03;5590849;31;34211;-70
2023/04/23 03:48:38;;;;;;;;;;;;;;;6.95;100.00;100124.09;5590676;31;34439;-70
2023/04/23 03:51:40;;;;;;;;;;;;;;;7.11;100.00;100132.19;5590605;31;34098;-70
2023/04/23 03:54:43;;;;;;;;;;;;;;;7.22;100.00;100136.38;5590843;31;34303;-70
2023/04/23 03:57:46;;;;;;;;;;;;;;;7.29;100.00;100134.78;5576930;31;34178;-70
2023/04/23 04:00:49;;;;;;;;;;;;;;;7.26;100.00;100135.09;5590453;31;34222;-70
2023/04/23 04:03:52;;;;;;;;;;;;;;;7.17;100.00;100126.28;5590244;31;34768;-70
2023/04/23 04:06:59;;;;;;;;;;;;;;;7.07;100.00;100127.34;5589525;31;34386;-70
2023/04/23 04:10:02;;;;;;;;;;;;;;;6.98;100.00;100135.16;5590339;31;34208;-70
2023/04/23 04:13:04;;;;;;;;;;;;;;;6.96;100.00;100136.31;5590390;31;34237;-70
2023/04/23 04:16:07;;;;;;;;;;;;;;;6.96;100.00;100141.59;5590347;31;34178;-71
2023/04/23 04:19:09;;;;;;;;;;;;;;;6.97;100.00;100149.34;5590333;31;34319;-71
2023/04/23 04:22:12;;;;;;;;;;;;;;;7.01;100.00;100143.78;5590279;31;34292;-70
2023/04/23 04:25:14;;;;;;;;;;;;;;;7.04;100.00;100146.94;5590220;31;34160;-70
2023/04/23 04:28:17;;;;;;;;;;;;;;;7.11;100.00;100147.16;5590246;31;34174;-70
2023/04/23 04:31:20;;;;;;;;;;;;;;;7.22;100.00;100146.91;5590261;31;34085;-70
2023/04/23 04:34:23;;;;;;;;;;;;;;;7.32;100.00;100153.78;5590234;31;32427;-71
2023/04/23 04:37:26;;;;;;;;;;;;;;;7.45;100.00;100158.69;5590202;31;34782;-71
2023/04/23 04:40:29;;;;;;;;;;;;;;;7.57;100.00;100153.97;5590120;31;34051;-71
2023/04/23 04:43:33;;;;;;;;;;;;;;;7.66;100.00;100158.31;5590097;31;34202;-71
2023/04/23 04:46:39;;;;;;;;;;;;;;;7.74;100.00;100155.75;5590016;31;34818;-71
2023/04/23 04:49:41;;;;;;;;;;;;;;;7.84;100.00;100154.63;5589984;31;34338;-71
2023/04/23 04:52:44;;;;;;;;;;;;;;;7.98;100.00;100158.53;5590043;31;34218;-71
2023/04/23 04:55:46;;;;;;;;;;;;;;;8.11;100.00;100166.88;5589918;31;34723;-71
2023/04/23 04:58:49;;;;;;;;;;;;;;;8.22;100.00;100165.78;5590135;31;34185;-71
2023/04/23 05:01:51;;;;;;;;;;;;;;;8.37;100.00;100171.31;5590307;31;34665;-70
2023/04/23 05:04:54;;;;;;;;;;;;;;;8.51;100.00;100174.19;5589702;31;34253;-70
2023/04/23 05:08:01;;;;;;;;;;;;;;;8.64;100.00;100168.44;5590192;31;34742;-70
2023/04/23 05:11:03;;;;;;;;;;;;;;;8.80;100.00;100170.31;5577151;31;34678;-71
2023/04/23 05:14:06;;;;;;;;;;;;;;;8.94;100.00;100169.69;5589767;31;34287;-71
2023/04/23 05:17:08;;;;;;;;;;;;;;;9.09;100.00;100168.06;5589860;31;33893;-71
2023/04/23 05:20:11;;;;;;;;;;;;;;;9.21;100.00;100172.03;5589508;31;35031;-72
2023/04/23 05:23:14;;;;;;;;;;;;;;;9.38;100.00;100173.72;5576059;31;34268;-71
2023/04/23 05:26:17;;;;;;;;;;;;;;;9.54;100.00;100176.34;5589712;31;34261;-71
2023/04/23 05:29:22;;;;;;;;;;;;;;;9.74;100.00;100170.69;5589812;31;34210;-71
2023/04/23 05:32:25;;;;;;;;;;;;;;;9.82;100.00;100174.19;5589677;31;34293;-71
2023/04/23 05:35:30;;;;;;;;;;;;;;;10.06;100.00;100178.63;5589987;31;34131;-71
2023/04/23 05:38:33;;;;;;;;;;;;;;;10.24;100.00;100173.13;5589869;31;34908;-71
2023/04/23 05:41:35;;;;;;;;;;;;;;;10.25;100.00;100169.47;5575849;31;34292;-71
2023/04/23 05:44:40;;;;;;;;;;;;;;;10.34;100.00;100168.44;5575900;31;34737;-71
2023/04/23 05:47:43;;;;;;;;;;;;;;;10.49;100.00;100173.88;5589331;31;34838;-72
2023/04/23 05:50:48;;;;;;;;;;;;;;;10.67;100.00;100167.31;5589292;31;35041;-71
2023/04/23 05:53:51;;;;;;;;;;;;;;;10.86;100.00;100177.50;5589294;31;34189;-71
2023/04/23 05:56:55;;;;;;;;;;;;;;;10.91;100.00;100174.31;5589152;31;34792;-71
2023/04/23 05:59:58;;;;;;;;;;;;;;;11.03;100.00;100170.28;5575393;31;34133;-72
2023/04/23 06:03:01;;;;;;;;;;;;;;;11.22;100.00;100175.13;5575727;31;34628;-71
2023/04/23 06:06:04;;;;;;;;;;;;;;;11.37;100.00;100177.84;5589033;31;34244;-71
2023/04/23 06:09:06;;;;;;;;;;;;;;;11.46;98.34;100191.88;5589056;31;34337;-71
2023/04/23 06:12:10;;;;;;;;;;;;;;;11.64;96.33;100182.59;5588984;31;34227;-71
2023/04/23 06:15:12;;;;;;;;;;;;;;;11.80;93.47;100184.31;5575324;31;34162;-71
2023/04/23 06:18:15;;;;;;;;;;;;;;;11.96;91.42;100183.28;5589098;31;34205;-71
2023/04/23 06:21:17;;;;;;;;;;;;;;;12.12;91.46;100189.28;5588851;31;34969;-71
2023/04/23 06:24:21;;;;;;;;;;;;;;;12.33;85.96;100190.41;5588744;31;34341;-71
2023/04/23 06:27:23;;;;;;;;;;;;;;;12.56;85.25;100188.47;5574965;31;34772;-71
2023/04/23 06:30:27;;;;;;;;;;;;;;;12.73;81.86;100191.75;5576086;31;34899;-72
2023/04/23 06:33:31;;;;;;;;;;;;;;;12.88;79.88;100196.00;5591167;31;34825;-71
2023/04/23 06:36:34;;;;;;;;;;;;;;;13.08;74.50;100199.72;5591154;31;34823;-71
2023/04/23 06:39:36;;;;;;;;;;;;;;;13.16;75.02;100198.00;5591178;31;34855;-72
2023/04/23 06:42:39;;;;;;;;;;;;;;;13.55;73.93;100198.41;5591461;31;34166;-72
2023/04/23 06:45:42;;;;;;;;;;;;;;;13.86;68.23;100198.03;5577851;31;34092;-71
2023/04/23 06:48:45;;;;;;;;;;;;;;;14.18;64.81;100191.31;5590690;31;34290;-71
2023/04/23 06:51:48;;;;;;;;;;;;;;;14.49;62.99;100204.22;5591081;31;34674;-72
2023/04/23 06:54:52;;;;;;;;;;;;;;;14.63;61.80;100195.25;5577649;31;33908;-71
2023/04/23 06:57:55;;;;;;;;;;;;;;;15.12;59.94;100195.88;5577062;31;34783;-71
2023/04/23 07:01:06;;;;;;;;;;;;;;;16.00;57.87;100194.75;5590984;31;34794;-71
2023/04/23 07:04:09;;;;;;;;;;;;;;;16.67;56.36;100190.91;5590894;31;34200;-71
2023/04/23 07:07:14;;;;;;;;;;;;;;;17.64;51.23;100193.28;5591326;31;34882;-72
2023/04/23 07:10:16;;;;;;;;;;;;;;;18.40;48.39;100190.28;5591017;31;34248;-72
2023/04/23 07:13:19;;;;;;;;;;;;;;;18.81;47.89;100194.19;5590835;31;34128;-72
2023/04/23 07:16:22;;;;;;;;;;;;;;;19.42;45.30;100193.97;5563714;31;34978;-72
2023/04/23 07:19:26;;;;;;;;;;;;;;;20.14;42.55;100200.88;5591049;31;34118;-73
2023/04/23 07:22:28;;;;;;;;;;;;;;;20.41;41.99;100189.66;5576904;31;34309;-72
2023/04/23 07:25:32;;;;;;;;;;;;;;;20.96;41.17;100190.00;5590271;31;34890;-71
2023/04/23 07:28:34;;;;;;;;;;;;;;;20.63;39.76;100191.50;5590687;31;34217;-73
2023/04/23 07:31:40;;;;;;;;;;;;;;;21.73;39.15;100183.06;5577219;31;34258;-72
2023/04/23 07:34:42;;;;;;;;;;;;;;;22.40;36.71;100189.22;5590763;31;34318;-71
2023/04/23 07:37:45;;;;;;;;;;;;;;;23.11;35.09;100187.41;5590583;31;34803;-72
2023/04/23 07:40:49;;;;;;;;;;;;;;;23.07;33.53;100178.16;5576991;31;34133;-71
2023/04/23 07:43:52;;;;;;;;;;;;;;;23.22;33.57;100182.94;5590556;31;34768;-72
2023/04/23 07:46:55;;;;;;;;;;;;;;;22.14;33.42;100183.69;5590276;31;34174;-72
2023/04/23 07:49:57;;;;;;;;;;;;;;;23.43;33.51;100176.63;5590545;31;34769;-73
2023/04/23 07:53:00;;;;;;;;;;;;;;;22.37;34.20;100180.78;5590400;31;35178;-72
2023/04/23 07:56:03;;;;;;;;;;;;;;;23.57;31.05;100183.31;5590600;31;34173;-72
2023/04/23 07:59:05;;;;;;;;;;;;;;;24.35;29.28;100176.28;5577109;31;34205;-71
2023/04/23 08:02:08;;;;;;;;;;;;;;;25.18;28.86;100179.06;5590459;31;34841;-71
2023/04/23 08:05:11;;;;;;;;;;;;;;;25.08;26.87;100180.66;5590610;31;34770;-71
2023/04/23 08:08:13;;;;;;;;;;;;;;;23.79;27.85;100177.78;5590858;31;34785;-72
2023/04/23 08:11:16;;;;;;;;;;;;;;;23.19;28.86;100173.41;5590252;31;34923;-72
2023/04/23 08:14:19;;;;;;;;;;;;;;;24.68;27.47;100166.94;5589830;31;34133;-73
2023/04/23 08:17:21;;;;;;;;;;;;;;;24.43;26.86;100170.38;5590533;31;34782;-72
2023/04/23 08:20:24;;;;;;;;;;;;;;;25.10;26.69;100169.53;5590135;31;34280;-72
2023/04/23 08:23:27;;;;;;;;;;;;;;;23.94;28.71;100168.94;5576408;31;35017;-71
2023/04/23 08:26:29;;;;;;;;;;;;;;;24.00;27.48;100168.72;5590144;31;34818;-73
2023/04/23 08:29:34;;;;;;;;;;;;;;;25.66;25.43;100172.37;5590071;31;34100;-73
2023/04/23 08:32:37;;;;;;;;;;;;;;;25.57;24.82;100168.53;5590199;31;34075;-71
2023/04/23 08:35:40;;;;;;;;;;;;;;;26.03;24.37;100172.06;5590054;31;34781;-71
2023/04/23 08:38:43;;;;;;;;;;;;;;;26.85;24.69;100166.09;5576494;31;34181;-72
2023/04/23 08:41:48;;;;;;;;;;;;;;;25.79;24.95;100169.09;5590138;31;34121;-70
2023/04/23 08:44:52;;;;;;;;;;;;;;;25.50;25.32;100155.22;5589934;31;34130;-71
2023/04/23 08:47:59;;;;;;;;;;;;;;;25.35;25.69;100156.03;5589865;31;34303;-70
2023/04/23 08:51:04;;;;;;;;;;;;;;;24.07;27.12;100153.03;5590034;31;34236;-71
2023/04/23 08:54:11;;;;;;;;;;;;;;;26.81;24.49;100145.97;5589083;31;34600;-71
2023/04/23 08:57:15;;;;;;;;;;;;;;;27.70;23.28;100139.41;5589712;31;34257;-71
2023/04/23 09:00:18;;;;;;;;;;;;;;;27.67;24.12;100138.06;5589958;31;34903;-71
2023/04/23 09:03:23;;;;;;;;;;;;;;;26.55;24.43;100145.28;5589669;31;34219;-72
2023/04/23 09:06:25;;;;;;;;;;;;;;;27.27;23.13;100140.25;5589844;31;34799;-71
2023/04/23 09:09:28;;;;;;;;;;;;;;;25.50;24.46;100137.03;5589890;31;34296;-71
2023/04/23 09:12:34;;;;;;;;;;;;;;;27.09;23.39;100139.84;5589879;31;34161;-72
2023/04/23 09:15:42;;;;;;;;;;;;;;;28.12;23.41;100136.03;5589785;31;34119;-71
2023/04/23 09:18:45;;;;;;;;;;;;;;;26.31;25.57;100125.25;5589707;31;33449;-71
2023/04/23 09:21:50;;;;;;;;;;;;;;;29.26;22.74;100127.69;5589670;31;34029;-72
2023/04/23 09:24:53;;;;;;;;;;;;;;;30.84;20.42;100129.97;5589560;31;34265;-72
2023/04/23 09:27:57;;;;;;;;;;;;;;;30.56;20.87;100129.22;5589607;31;34295;-73
2023/04/23 09:31:01;;;;;;;;;;;;;;;30.33;20.65;100121.19;5575972;31;34229;-71
2023/04/23 09:34:06;;;;;;;;;;;;;;;28.37;22.14;100124.00;5589903;31;34301;-72
2023/04/23 09:37:09;;;;;;;;;;;;;;;27.63;23.07;100117.94;5589722;31;34064;-71
2023/04/23 09:40:18;;;;;;;;;;;;;;;26.70;24.37;100117.19;5589517;31;34307;-72
2023/04/23 09:43:22;;;;;;;;;;;;;;;29.52;21.48;100122.69;5589363;31;34236;-71
2023/04/23 09:46:41;;;;;;;;;;;;;;;29.94;20.81;100116.19;5589786;31;34416;-71
2023/04/23 09:49:46;;;;;;;;;;;;;;;28.80;21.22;100111.19;5589442;31;34061;-72
2023/04/23 09:52:58;;;;;;;;;;;;;;;28.66;22.08;100108.31;5576625;31;34199;-71
2023/04/23 09:56:01;;;;;;;;;;;;;;;27.43;23.40;100101.72;5589248;31;35091;-71
2023/04/23 09:59:18;;;;;;;;;;;;;;;26.97;22.36;100106.69;5575353;31;34042;-70
2023/04/23 10:02:32;;;;;;;;;;;;;;;25.34;24.65;100091.09;5576902;31;34818;-70
2023/04/23 10:05:40;;;;;;;;;;;;;;;23.46;27.40;100085.97;5587708;31;34939;-71
2023/04/23 10:08:45;;;;;;;;;;;;;;;23.35;26.75;100087.75;5575962;31;34511;-71
2023/04/23 10:11:52;;;;;;;;;;;;;;;22.49;27.87;100074.19;5588820;31;34104;-72
2023/04/23 10:14:56;;;;;;;;;;;;;;;22.21;26.98;100073.56;5562217;31;34180;-70
2023/04/23 10:17:59;;;;;;;;;;;;;;;21.79;28.54;100070.53;5589407;31;34208;-72
2023/04/23 10:21:02;;;;;;;;;;;;;;;22.22;28.26;100067.91;5588983;31;33349;-73
2023/04/23 10:24:06;;;;;;;;;;;;;;;22.10;28.03;100081.53;5588657;31;34360;-71
2023/04/23 10:27:10;;;;;;;;;;;;;;;22.12;28.95;100069.69;5588452;31;33949;-71
2023/04/23 10:30:28;;;;;;;;;;;;;;;21.69;29.72;100058.50;5588827;31;34720;-71
2023/04/23 10:33:32;;;;;;;;;;;;;;;22.33;28.56;100064.25;5588372;31;35208;-71
2023/04/23 10:36:45;;;;;;;;;;;;;;;23.70;26.45;100060.16;5588487;31;34124;-71
2023/04/23 10:39:49;;;;;;;;;;;;;;;24.29;23.82;100065.38;5588742;31;34931;-71
2023/04/23 10:42:52;;;;;;;;;;;;;;;27.25;22.59;100064.31;5588548;31;34844;-71
2023/04/23 10:45:55;;;;;;;;;;;;;;;28.73;20.42;100053.41;5588674;31;34103;-71
2023/04/23 10:49:05;;;;;;;;;;;;;;;32.32;17.65;100053.81;5574345;31;33838;-71
2023/04/23 10:52:09;;;;;;;;;;;;;;;30.46;17.09;100054.69;5588160;31;34883;-71
2023/04/23 10:55:22;;;;;;;;;;;;;;;29.19;18.43;100054.31;5587853;31;34694;-71
2023/04/23 10:58:48;;;;;;;;;;;;;;;32.03;17.40;100037.06;5588041;31;34555;-72
2023/04/23 11:01:51;;;;;;;;;;;;;;;32.73;16.19;100045.97;5588289;31;33850;-71
2023/04/23 11:04:55;;;;;;;;;;;;;;;31.39;18.06;100053.84;5588395;31;34376;-73
2023/04/23 11:08:03;;;;;;;;;;;;;;;31.93;17.14;100047.22;5588085;31;33629;-72
2023/04/23 11:11:31;;;;;;;;;;;;;;;30.80;17.78;100051.44;5588160;31;34116;-73
2023/04/23 11:14:48;;;;;;;;;;;;;;;32.97;17.44;100050.19;5588098;31;34098;-72
2023/04/23 11:17:51;;;;;;;;;;;;;;;35.82;14.76;100044.56;5589907;31;34839;-75
2023/04/23 11:20:55;;;;;;;;;;;;;;;35.50;15.13;100041.47;5590437;31;34294;-71
2023/04/23 11:24:00;;;;;;;;;;;;;;;31.69;16.82;100040.50;5590626;31;34306;-72
2023/04/23 11:27:06;;;;;;;;;;;;;;;31.26;17.75;100023.78;5590381;31;34217;-72
2023/04/23 11:30:18;;;;;;;;;;;;;;;32.30;15.97;100029.41;5590392;31;34510;-71
2023/04/23 11:33:21;;;;;;;;;;;;;;;32.59;15.58;100028.00;5590555;31;34884;-71
2023/04/23 11:36:26;;;;;;;;;;;;;;;35.04;14.79;100025.25;5590421;31;34756;-71
2023/04/23 11:39:29;;;;;;;;;;;;;;;33.45;15.80;100025.22;5590630;31;34313;-72
2023/04/23 11:42:31;;;;;;;;;;;;;;;33.35;15.64;100031.06;5590717;31;34189;-73
2023/04/23 11:45:34;;;;;;;;;;;;;;;34.31;14.28;100030.34;5590260;31;34211;-71
2023/04/23 11:48:36;;;;;;;;;;;;;;;34.36;15.17;100030.97;5590313;31;34089;-71
2023/04/23 11:51:41;;;;;;;;;;;;;;;31.63;16.47;100017.06;5590391;31;34759;-71
2023/04/23 11:54:43;;;;;;;;;;;;;;;32.77;15.99;100013.97;5590244;31;34303;-72
2023/04/23 11:57:47;;;;;;;;;;;;;;;35.35;14.89;100002.72;5590384;31;34213;-71
2023/04/23 12:00:56;;;;;;;;;;;;;;;32.84;16.91;100005.25;5576426;31;34379;-72
2023/04/23 12:04:10;;;;;;;;;;;;;;;28.24;19.88;99999.22;5576912;31;34845;-71
2023/04/23 12:07:15;;;;;;;;;;;;;;;26.56;21.21;100001.91;5590038;31;34131;-71
2023/04/23 12:10:28;;;;;;;;;;;;;;;28.55;21.14;99994.97;5590260;31;34390;-71
2023/04/23 12:13:38;;;;;;;;;;;;;;;29.65;20.61;99988.75;5590576;31;34842;-71
2023/04/23 12:16:42;;;;;;;;;;;;;;;34.13;16.62;99993.03;5590468;31;34181;-71
2023/04/23 12:19:44;;;;;;;;;;;;;;;28.45;20.62;99976.00;5590113;31;34084;-73
2023/04/23 12:22:47;;;;;;;;;;;;;;;27.38;21.16;99975.66;5589975;31;34042;-71
2023/04/23 12:25:53;;;;;;;;;;;;;;;28.45;20.53;99978.72;5576366;31;34276;-71
2023/04/23 12:29:01;;;;;;;;;;;;;;;30.67;18.73;99968.25;5589620;31;32719;-71
2023/04/23 12:32:04;;;;;;;;;;;;;;;31.13;18.81;99973.41;5576286;31;35209;-70
2023/04/23 12:35:08;;;;;;;;;;;;;;;34.85;15.86;99979.72;5590115;31;34792;-70
2023/04/23 12:38:24;;;;;;;;;;;;;;;33.91;15.98;99972.09;5590232;31;34161;-71
2023/04/23 12:41:26;;;;;;;;;;;;;;;30.22;17.99;99962.66;5589855;31;34296;-70
2023/04/23 12:44:35;;;;;;;;;;;;;;;32.15;17.46;99955.75;5576279;31;34804;-70
2023/04/23 12:47:40;;;;;;;;;;;;;;;33.10;16.53;99953.78;5589916;31;34775;-71
2023/04/23 12:50:44;;;;;;;;;;;;;;;27.74;20.64;99949.63;5589970;31;34121;-71
2023/04/23 12:53:52;;;;;;;;;;;;;;;27.17;21.68;99948.59;5589897;31;34056;-71
2023/04/23 12:56:55;;;;;;;;;;;;;;;25.67;23.80;99945.75;5589940;31;34209;-71
2023/04/23 12:59:58;;;;;;;;;;;;;;;24.84;24.77;99945.31;5589868;31;34838;-72
2023/04/23 13:03:01;;;;;;;;;;;;;;;27.83;20.96;99941.66;5589830;31;34523;-71
2023/04/23 13:06:03;;;;;;;;;;;;;;;33.56;16.33;99939.22;5589838;31;34115;-72
2023/04/23 13:09:09;;;;;;;;;;;;;;;35.84;14.59;99942.88;5576152;31;34569;-69
2023/04/23 13:12:12;;;;;;;;;;;;;;;36.06;13.81;99936.88;5589588;31;34775;-70
2023/04/23 13:15:15;;;;;;;;;;;;;;;36.67;14.72;99932.00;5589926;31;34821;-70
2023/04/23 13:18:18;;;;;;;;;;;;;;;37.64;12.58;99930.59;5589623;31;34099;-70
2023/04/23 13:21:21;;;;;;;;;;;;;;;35.76;13.88;99919.75;5575884;31;34097;-70
2023/04/23 13:24:24;;;;;;;;;;;;;;;38.06;12.82;99919.69;5589260;31;34226;-71
2023/04/23 13:27:28;;;;;;;;;;;;;;;37.39;12.88;99916.91;5589340;31;34234;-71
2023/04/23 13:30:31;;;;;;;;;;;;;;;39.15;12.33;99904.47;5589597;31;34285;-73
2023/04/23 13:33:33;;;;;;;;;;;;;;;35.49;13.99;99901.09;5589893;31;35126;-70
2023/04/23 13:36:36;;;;;;;;;;;;;;;32.95;15.63;99896.59;5589558;31;34201;-71
2023/04/23 13:39:39;;;;;;;;;;;;;;;33.35;15.05;99902.63;5589100;31;34457;-71
2023/04/23 13:42:44;;;;;;;;;;;;;;;32.55;15.50;99878.72;5589143;31;34345;-71
2023/04/23 13:45:50;;;;;;;;;;;;;;;35.43;14.10;99885.97;5589662;31;34789;-72
2023/04/23 13:48:55;;;;;;;;;;;;;;;32.62;15.68;99879.03;5589411;31;34845;-70
2023/04/23 13:52:02;;;;;;;;;;;;;;;35.66;14.80;99871.37;5589769;31;34106;-70
2023/04/23 13:55:06;;;;;;;;;;;;;;;36.98;13.53;99870.41;5589348;31;34119;-70
2023/04/23 13:58:09;;;;;;;;;;;;;;;39.83;11.91;99865.50;5589296;31;34565;-72
2023/04/23 14:01:14;;;;;;;;;;;;;;;36.75;12.67;99870.19;5589705;31;34122;-71
2023/04/23 14:04:17;;;;;;;;;;;;;;;34.95;13.40;99859.94;5589185;31;34924;-73
2023/04/23 14:07:20;;;;;;;;;;;;;;;33.34;15.14;99861.72;5588759;31;34186;-71
2023/04/23 14:10:23;;;;;;;;;;;;;;;29.77;18.24;99857.00;5588918;31;34865;-71
2023/04/23 14:13:25;;;;;;;;;;;;;;;28.64;18.98;99858.63;5588674;31;34453;-71
2023/04/23 14:16:28;;;;;;;;;;;;;;;28.60;19.02;99852.94;5588954;31;34891;-71
2023/04/23 14:19:33;;;;;;;;;;;;;;;27.98;19.96;99851.47;5588840;31;34186;-70
2023/04/23 14:22:36;;;;;;;;;;;;;;;29.58;18.48;99846.16;5589261;31;32731;-71
2023/04/23 14:25:40;;;;;;;;;;;;;;;28.76;19.90;99848.03;5588614;31;34778;-71
2023/04/23 14:28:45;;;;;;;;;;;;;;;26.34;21.53;99839.91;5588759;31;34880;-71
2023/04/23 14:31:49;;;;;;;;;;;;;;;26.00;22.16;99827.38;5588743;31;34201;-71
2023/04/23 14:34:52;;;;;;;;;;;;;;;26.22;22.51;99830.50;5588278;31;34255;-70
2023/04/23 14:37:55;;;;;;;;;;;;;;;26.06;22.10;99831.69;5588204;31;34216;-71
2023/04/23 14:40:57;;;;;;;;;;;;;;;24.80;23.41;99822.94;5588038;31;34759;-70
2023/04/23 14:44:00;;;;;;;;;;;;;;;24.71;23.76;99832.72;5579616;31;294142;-71
2023/04/23 14:47:03;;;;;;;;;;;;;;;23.64;24.12;99831.00;5588367;31;34697;-71
2023/04/23 14:50:05;;;;;;;;;;;;;;;23.45;24.71;99821.72;5588044;31;34295;-70
2023/04/23 14:53:09;;;;;;;;;;;;;;;23.89;24.94;99817.53;5590148;31;34263;-70
2023/04/23 14:56:11;;;;;;;;;;;;;;;23.50;24.61;99816.34;5590679;31;34778;-70
2023/04/23 14:59:16;;;;;;;;;;;;;;;23.72;26.16;99816.97;5590669;31;34206;-70
2023/04/23 15:02:21;;;;;;;;;;;;;;;23.85;26.33;99810.19;5590980;31;34172;-70
2023/04/23 15:05:24;;;;;;;;;;;;;;;23.53;24.63;99811.19;5590662;31;34471;-70
2023/04/23 15:08:27;;;;;;;;;;;;;;;23.86;24.78;99819.97;5576840;31;34833;-71
2023/04/23 15:11:30;;;;;;;;;;;;;;;23.55;25.27;99811.75;5576958;31;34763;-70
2023/04/23 15:14:36;;;;;;;;;;;;;;;23.33;25.59;99809.19;5590522;31;34068;-70
2023/04/23 15:17:41;;;;;;;;;;;;;;;23.11;25.96;99814.00;5590507;31;34885;-71
2023/04/23 15:20:48;;;;;;;;;;;;;;;22.89;25.53;99806.03;5590789;31;34217;-71
2023/04/23 15:23:52;;;;;;;;;;;;;;;22.49;26.00;99806.56;5590804;31;34305;-70
2023/04/23 15:27:00;;;;;;;;;;;;;;;22.63;26.03;99806.09;5576192;31;34175;-69
2023/04/23 15:30:04;;;;;;;;;;;;;;;22.54;26.15;99805.78;5590393;31;34123;-70
2023/04/23 15:33:10;;;;;;;;;;;;;;;22.63;26.85;99806.91;5590598;31;34891;-68
2023/04/23 15:36:12;;;;;;;;;;;;;;;22.51;26.54;99800.91;5590279;31;34560;-68
2023/04/23 15:39:15;;;;;;;;;;;;;;;22.27;27.11;99794.22;5590706;31;34223;-70
2023/04/23 15:42:20;;;;;;;;;;;;;;;22.10;27.34;99788.94;5590145;31;34680;-70
2023/04/23 15:45:22;;;;;;;;;;;;;;;21.88;27.19;99794.38;5590207;31;34899;-71
2023/04/23 15:48:26;;;;;;;;;;;;;;;21.52;28.08;99784.31;5590342;31;34990;-69